sensor_id;sensor_type;location;lat;lon;timestamp;temperature;humidity
19214;DHT22;9741;51.020;5.304;2023-02-11T00:00:49;6.70;60.50
19214;DHT22;9741;51.020;5.304;2023-02-11T00:03:16;6.60;60.50
19214;DHT22;9741;51.020;5.304;2023-02-11T00:05:43;6.60;60.60
19214;DHT22;9741;51.020;5.304;2023-02-11T00:08:10;6.50;60.60
19214;DHT22;9741;51.020;5.304;2023-02-11T00:10:42;6.50;60.70
19214;DHT22;9741;51.020;5.304;2023-02-11T00:13:11;6.40;60.60
19214;DHT22;9741;51.020;5.304;2023-02-11T00:15:38;6.40;60.70
19214;DHT22;9741;51.020;5.304;2023-02-11T00:18:05;6.30;60.70
19214;DHT22;9741;51.020;5.304;2023-02-11T00:20:32;6.30;60.80
19214;DHT22;9741;51.020;5.304;2023-02-11T00:22:58;6.20;60.80
19214;DHT22;9741;51.020;5.304;2023-02-11T00:25:25;6.20;60.80
19214;DHT22;9741;51.020;5.304;2023-02-11T00:27:54;6.20;60.90
19214;DHT22;9741;51.020;5.304;2023-02-11T00:30:21;6.20;61.00
19214;DHT22;9741;51.020;5.304;2023-02-11T00:32:48;6.30;61.00
19214;DHT22;9741;51.020;5.304;2023-02-11T00:35:15;6.30;61.10
19214;DHT22;9741;51.020;5.304;2023-02-11T00:37:42;6.30;61.10
19214;DHT22;9741;51.020;5.304;2023-02-11T00:40:10;6.40;61.20
19214;DHT22;9741;51.020;5.304;2023-02-11T00:42:37;6.50;61.30
19214;DHT22;9741;51.020;5.304;2023-02-11T00:45:07;6.50;61.20
19214;DHT22;9741;51.020;5.304;2023-02-11T00:47:34;6.60;61.30
19214;DHT22;9741;51.020;5.304;2023-02-11T00:50:01;6.70;61.30
19214;DHT22;9741;51.020;5.304;2023-02-11T00:52:29;6.80;61.30
19214;DHT22;9741;51.020;5.304;2023-02-11T00:54:56;6.80;61.30
19214;DHT22;9741;51.020;5.304;2023-02-11T00:57:24;6.90;61.30
19214;DHT22;9741;51.020;5.304;2023-02-11T00:59:50;6.90;61.30
19214;DHT22;9741;51.020;5.304;2023-02-11T01:02:19;7.00;61.30
19214;DHT22;9741;51.020;5.304;2023-02-11T01:04:46;7.00;61.40
19214;DHT22;9741;51.020;5.304;2023-02-11T01:07:13;7.00;61.40
19214;DHT22;9741;51.020;5.304;2023-02-11T01:09:40;7.10;61.40
19214;DHT22;9741;51.020;5.304;2023-02-11T01:12:07;7.10;61.40
19214;DHT22;9741;51.020;5.304;2023-02-11T01:14:34;7.20;61.50
19214;DHT22;9741;51.020;5.304;2023-02-11T01:17:03;7.20;61.40
19214;DHT22;9741;51.020;5.304;2023-02-11T01:19:31;7.20;61.40
19214;DHT22;9741;51.020;5.304;2023-02-11T01:21:58;7.20;61.40
19214;DHT22;9741;51.020;5.304;2023-02-11T01:24:25;7.10;61.30
19214;DHT22;9741;51.020;5.304;2023-02-11T01:26:52;7.10;61.30
19214;DHT22;9741;51.020;5.304;2023-02-11T01:29:20;7.10;61.40
19214;DHT22;9741;51.020;5.304;2023-02-11T01:31:47;7.00;61.30
19214;DHT22;9741;51.020;5.304;2023-02-11T01:34:14;7.00;61.40
19214;DHT22;9741;51.020;5.304;2023-02-11T01:36:42;7.00;61.40
19214;DHT22;9741;51.020;5.304;2023-02-11T01:39:09;7.00;61.50
19214;DHT22;9741;51.020;5.304;2023-02-11T01:41:36;6.90;61.40
19214;DHT22;9741;51.020;5.304;2023-02-11T01:44:26;6.90;61.50
19214;DHT22;9741;51.020;5.304;2023-02-11T01:46:54;7.00;61.60
19214;DHT22;9741;51.020;5.304;2023-02-11T01:49:25;7.00;61.60
19214;DHT22;9741;51.020;5.304;2023-02-11T01:51:57;7.00;61.50
19214;DHT22;9741;51.020;5.304;2023-02-11T01:54:29;7.00;61.50
19214;DHT22;9741;51.020;5.304;2023-02-11T01:57:17;7.00;61.50
19214;DHT22;9741;51.020;5.304;2023-02-11T01:59:56;7.00;61.40
19214;DHT22;9741;51.020;5.304;2023-02-11T02:02:31;7.00;61.40
19214;DHT22;9741;51.020;5.304;2023-02-11T02:05:06;7.00;61.50
19214;DHT22;9741;51.020;5.304;2023-02-11T02:07:40;7.10;61.50
19214;DHT22;9741;51.020;5.304;2023-02-11T02:10:13;7.10;61.60
19214;DHT22;9741;51.020;5.304;2023-02-11T02:12:40;7.10;61.50
19214;DHT22;9741;51.020;5.304;2023-02-11T02:15:21;7.20;61.60
19214;DHT22;9741;51.020;5.304;2023-02-11T02:17:58;7.20;61.50
19214;DHT22;9741;51.020;5.304;2023-02-11T02:20:55;7.20;61.50
19214;DHT22;9741;51.020;5.304;2023-02-11T02:23:37;7.30;61.50
19214;DHT22;9741;51.020;5.304;2023-02-11T02:26:44;7.30;61.50
19214;DHT22;9741;51.020;5.304;2023-02-11T02:32:42;7.30;61.50
19214;DHT22;9741;51.020;5.304;2023-02-11T02:35:23;7.30;61.50
19214;DHT22;9741;51.020;5.304;2023-02-11T02:37:56;7.30;61.50
19214;DHT22;9741;51.020;5.304;2023-02-11T02:40:29;7.30;61.60
19214;DHT22;9741;51.020;5.304;2023-02-11T02:42:59;7.30;61.60
19214;DHT22;9741;51.020;5.304;2023-02-11T02:45:27;7.30;61.50
19214;DHT22;9741;51.020;5.304;2023-02-11T02:47:55;7.30;61.50
19214;DHT22;9741;51.020;5.304;2023-02-11T02:50:27;7.40;61.60
19214;DHT22;9741;51.020;5.304;2023-02-11T02:53:04;7.40;61.60
19214;DHT22;9741;51.020;5.304;2023-02-11T02:55:53;7.40;61.60
19214;DHT22;9741;51.020;5.304;2023-02-11T02:58:53;7.40;61.50
19214;DHT22;9741;51.020;5.304;2023-02-11T03:01:28;7.40;61.50
19214;DHT22;9741;51.020;5.304;2023-02-11T03:04:08;7.50;61.60
19214;DHT22;9741;51.020;5.304;2023-02-11T03:06:42;7.50;61.60
19214;DHT22;9741;51.020;5.304;2023-02-11T03:09:14;7.40;61.50
19214;DHT22;9741;51.020;5.304;2023-02-11T03:11:41;7.50;61.60
19214;DHT22;9741;51.020;5.304;2023-02-11T03:14:11;7.50;61.60
19214;DHT22;9741;51.020;5.304;2023-02-11T03:16:41;7.50;61.60
19214;DHT22;9741;51.020;5.304;2023-02-11T03:19:13;7.50;61.60
19214;DHT22;9741;51.020;5.304;2023-02-11T03:21:42;7.50;61.50
19214;DHT22;9741;51.020;5.304;2023-02-11T03:24:13;7.50;61.50
19214;DHT22;9741;51.020;5.304;2023-02-11T03:26:47;7.60;61.70
19214;DHT22;9741;51.020;5.304;2023-02-11T03:29:20;7.60;61.60
19214;DHT22;9741;51.020;5.304;2023-02-11T03:31:53;7.60;61.70
19214;DHT22;9741;51.020;5.304;2023-02-11T03:34:28;7.60;61.70
19214;DHT22;9741;51.020;5.304;2023-02-11T03:37:00;7.60;61.60
19214;DHT22;9741;51.020;5.304;2023-02-11T03:39:33;7.60;61.60
19214;DHT22;9741;51.020;5.304;2023-02-11T03:42:03;7.60;61.60
19214;DHT22;9741;51.020;5.304;2023-02-11T03:44:35;7.60;61.60
19214;DHT22;9741;51.020;5.304;2023-02-11T03:47:06;7.60;61.60
19214;DHT22;9741;51.020;5.304;2023-02-11T03:49:37;7.60;61.60
19214;DHT22;9741;51.020;5.304;2023-02-11T03:52:06;7.60;61.60
19214;DHT22;9741;51.020;5.304;2023-02-11T03:54:36;7.60;61.60
19214;DHT22;9741;51.020;5.304;2023-02-11T03:57:04;7.60;61.60
19214;DHT22;9741;51.020;5.304;2023-02-11T03:59:31;7.60;61.60
19214;DHT22;9741;51.020;5.304;2023-02-11T04:01:58;7.60;61.70
19214;DHT22;9741;51.020;5.304;2023-02-11T04:04:25;7.60;61.60
19214;DHT22;9741;51.020;5.304;2023-02-11T04:06:53;7.70;61.70
19214;DHT22;9741;51.020;5.304;2023-02-11T04:09:20;7.70;61.70
19214;DHT22;9741;51.020;5.304;2023-02-11T04:11:47;7.70;61.70
19214;DHT22;9741;51.020;5.304;2023-02-11T04:14:14;7.70;61.70
19214;DHT22;9741;51.020;5.304;2023-02-11T04:16:41;7.70;61.70
19214;DHT22;9741;51.020;5.304;2023-02-11T04:19:08;7.70;61.70
19214;DHT22;9741;51.020;5.304;2023-02-11T04:21:35;7.70;61.70
19214;DHT22;9741;51.020;5.304;2023-02-11T04:24:04;7.70;61.70
19214;DHT22;9741;51.020;5.304;2023-02-11T04:26:31;7.70;61.70
19214;DHT22;9741;51.020;5.304;2023-02-11T04:28:58;7.70;61.70
19214;DHT22;9741;51.020;5.304;2023-02-11T04:31:25;7.70;61.70
19214;DHT22;9741;51.020;5.304;2023-02-11T04:33:52;7.70;61.70
19214;DHT22;9741;51.020;5.304;2023-02-11T04:36:19;7.70;61.70
19214;DHT22;9741;51.020;5.304;2023-02-11T04:38:46;7.70;61.70
19214;DHT22;9741;51.020;5.304;2023-02-11T04:41:14;7.70;61.70
19214;DHT22;9741;51.020;5.304;2023-02-11T04:43:41;7.70;61.80
19214;DHT22;9741;51.020;5.304;2023-02-11T04:46:08;7.70;61.70
19214;DHT22;9741;51.020;5.304;2023-02-11T04:48:35;7.70;61.70
19214;DHT22;9741;51.020;5.304;2023-02-11T04:51:03;7.80;61.90
19214;DHT22;9741;51.020;5.304;2023-02-11T04:53:30;7.70;61.70
19214;DHT22;9741;51.020;5.304;2023-02-11T04:55:57;7.70;61.80
19214;DHT22;9741;51.020;5.304;2023-02-11T04:58:25;7.80;61.90
19214;DHT22;9741;51.020;5.304;2023-02-11T05:00:52;7.80;61.90
19214;DHT22;9741;51.020;5.304;2023-02-11T05:03:19;7.80;61.90
19214;DHT22;9741;51.020;5.304;2023-02-11T05:05:47;7.80;62.50
19214;DHT22;9741;51.020;5.304;2023-02-11T05:08:14;7.80;61.90
19214;DHT22;9741;51.020;5.304;2023-02-11T05:10:45;7.80;61.90
19214;DHT22;9741;51.020;5.304;2023-02-11T05:13:12;7.80;61.90
19214;DHT22;9741;51.020;5.304;2023-02-11T05:15:41;7.80;61.90
19214;DHT22;9741;51.020;5.304;2023-02-11T05:18:07;7.80;62.00
19214;DHT22;9741;51.020;5.304;2023-02-11T05:20:36;7.80;61.90
19214;DHT22;9741;51.020;5.304;2023-02-11T05:23:03;7.80;62.00
19214;DHT22;9741;51.020;5.304;2023-02-11T05:25:30;7.80;62.00
19214;DHT22;9741;51.020;5.304;2023-02-11T05:27:57;7.80;62.00
19214;DHT22;9741;51.020;5.304;2023-02-11T05:30:25;7.80;62.00
19214;DHT22;9741;51.020;5.304;2023-02-11T05:32:53;7.90;62.10
19214;DHT22;9741;51.020;5.304;2023-02-11T05:35:21;7.90;62.10
19214;DHT22;9741;51.020;5.304;2023-02-11T05:37:48;7.90;62.00
19214;DHT22;9741;51.020;5.304;2023-02-11T05:40:16;7.90;62.10
19214;DHT22;9741;51.020;5.304;2023-02-11T05:42:43;7.90;62.10
19214;DHT22;9741;51.020;5.304;2023-02-11T05:45:10;7.90;62.10
19214;DHT22;9741;51.020;5.304;2023-02-11T05:47:37;7.90;62.10
19214;DHT22;9741;51.020;5.304;2023-02-11T05:50:06;7.90;62.10
19214;DHT22;9741;51.020;5.304;2023-02-11T05:52:33;7.90;62.10
19214;DHT22;9741;51.020;5.304;2023-02-11T05:55:01;7.90;62.10
19214;DHT22;9741;51.020;5.304;2023-02-11T05:57:28;7.90;62.10
19214;DHT22;9741;51.020;5.304;2023-02-11T05:59:55;7.90;62.10
19214;DHT22;9741;51.020;5.304;2023-02-11T06:02:22;7.90;62.10
19214;DHT22;9741;51.020;5.304;2023-02-11T06:04:49;7.90;62.10
19214;DHT22;9741;51.020;5.304;2023-02-11T06:07:17;7.90;62.10
19214;DHT22;9741;51.020;5.304;2023-02-11T06:09:45;7.90;62.10
19214;DHT22;9741;51.020;5.304;2023-02-11T06:12:12;7.90;62.10
19214;DHT22;9741;51.020;5.304;2023-02-11T06:14:39;7.90;62.10
19214;DHT22;9741;51.020;5.304;2023-02-11T06:17:06;7.90;62.20
19214;DHT22;9741;51.020;5.304;2023-02-11T06:19:33;7.90;62.20
19214;DHT22;9741;51.020;5.304;2023-02-11T06:22:00;7.90;62.20
19214;DHT22;9741;51.020;5.304;2023-02-11T06:24:29;8.00;62.30
19214;DHT22;9741;51.020;5.304;2023-02-11T06:26:56;7.90;62.20
19214;DHT22;9741;51.020;5.304;2023-02-11T06:29:23;8.00;62.30
19214;DHT22;9741;51.020;5.304;2023-02-11T06:31:50;7.90;62.30
19214;DHT22;9741;51.020;5.304;2023-02-11T06:34:17;8.00;62.30
19214;DHT22;9741;51.020;5.304;2023-02-11T06:36:44;8.00;62.40
19214;DHT22;9741;51.020;5.304;2023-02-11T06:39:11;8.00;62.40
19214;DHT22;9741;51.020;5.304;2023-02-11T06:41:40;8.00;62.40
19214;DHT22;9741;51.020;5.304;2023-02-11T06:44:07;8.00;62.40
19214;DHT22;9741;51.020;5.304;2023-02-11T06:46:34;8.00;62.40
19214;DHT22;9741;51.020;5.304;2023-02-11T06:49:01;8.00;62.40
19214;DHT22;9741;51.020;5.304;2023-02-11T06:51:28;8.00;62.50
19214;DHT22;9741;51.020;5.304;2023-02-11T06:53:55;8.00;62.50
19214;DHT22;9741;51.020;5.304;2023-02-11T06:56:23;8.00;62.50
19214;DHT22;9741;51.020;5.304;2023-02-11T06:58:54;8.00;62.40
19214;DHT22;9741;51.020;5.304;2023-02-11T07:01:22;8.00;62.50
19214;DHT22;9741;51.020;5.304;2023-02-11T07:03:50;8.00;62.50
19214;DHT22;9741;51.020;5.304;2023-02-11T07:06:19;8.00;62.50
19214;DHT22;9741;51.020;5.304;2023-02-11T07:08:47;8.00;62.50
19214;DHT22;9741;51.020;5.304;2023-02-11T07:11:16;8.00;62.50
19214;DHT22;9741;51.020;5.304;2023-02-11T07:13:44;8.10;62.60
19214;DHT22;9741;51.020;5.304;2023-02-11T07:16:14;8.10;62.60
19214;DHT22;9741;51.020;5.304;2023-02-11T07:18:43;8.10;62.70
19214;DHT22;9741;51.020;5.304;2023-02-11T07:21:12;8.10;62.70
19214;DHT22;9741;51.020;5.304;2023-02-11T07:23:40;8.10;62.70
19214;DHT22;9741;51.020;5.304;2023-02-11T07:26:09;8.10;62.70
19214;DHT22;9741;51.020;5.304;2023-02-11T07:28:36;8.20;62.80
19214;DHT22;9741;51.020;5.304;2023-02-11T07:31:05;8.20;62.70
19214;DHT22;9741;51.020;5.304;2023-02-11T07:33:34;8.20;62.70
19214;DHT22;9741;51.020;5.304;2023-02-11T07:36:02;8.30;62.80
19214;DHT22;9741;51.020;5.304;2023-02-11T07:38:30;8.30;62.80
19214;DHT22;9741;51.020;5.304;2023-02-11T07:40:59;8.30;62.80
19214;DHT22;9741;51.020;5.304;2023-02-11T07:43:26;8.40;62.80
19214;DHT22;9741;51.020;5.304;2023-02-11T07:45:54;8.40;62.80
19214;DHT22;9741;51.020;5.304;2023-02-11T07:48:21;8.50;62.90
19214;DHT22;9741;51.020;5.304;2023-02-11T07:50:49;8.50;62.80
19214;DHT22;9741;51.020;5.304;2023-02-11T07:53:16;8.50;62.80
19214;DHT22;9741;51.020;5.304;2023-02-11T07:55:44;8.60;62.80
19214;DHT22;9741;51.020;5.304;2023-02-11T07:58:11;8.60;62.80
19214;DHT22;9741;51.020;5.304;2023-02-11T08:00:38;8.60;62.80
19214;DHT22;9741;51.020;5.304;2023-02-11T08:03:05;8.60;62.80
19214;DHT22;9741;51.020;5.304;2023-02-11T08:05:33;8.70;62.80
19214;DHT22;9741;51.020;5.304;2023-02-11T08:08:04;8.70;62.80
19214;DHT22;9741;51.020;5.304;2023-02-11T08:10:31;8.70;62.80
19214;DHT22;9741;51.020;5.304;2023-02-11T08:12:58;8.70;63.30
19214;DHT22;9741;51.020;5.304;2023-02-11T08:15:25;8.80;62.80
19214;DHT22;9741;51.020;5.304;2023-02-11T08:17:52;8.80;62.80
19214;DHT22;9741;51.020;5.304;2023-02-11T08:20:19;8.80;62.80
19214;DHT22;9741;51.020;5.304;2023-02-11T08:22:46;8.90;62.80
19214;DHT22;9741;51.020;5.304;2023-02-11T08:25:15;8.90;62.80
19214;DHT22;9741;51.020;5.304;2023-02-11T08:27:42;8.90;62.70
19214;DHT22;9741;51.020;5.304;2023-02-11T08:30:10;9.00;62.80
19214;DHT22;9741;51.020;5.304;2023-02-11T08:32:37;9.00;62.70
19214;DHT22;9741;51.020;5.304;2023-02-11T08:35:05;9.00;62.70
19214;DHT22;9741;51.020;5.304;2023-02-11T08:37:33;9.10;62.80
19214;DHT22;9741;51.020;5.304;2023-02-11T08:40:00;9.10;62.70
19214;DHT22;9741;51.020;5.304;2023-02-11T08:42:29;9.10;62.70
19214;DHT22;9741;51.020;5.304;2023-02-11T08:44:56;9.10;62.70
19214;DHT22;9741;51.020;5.304;2023-02-11T08:47:23;9.10;62.60
19214;DHT22;9741;51.020;5.304;2023-02-11T08:49:50;9.20;62.70
19214;DHT22;9741;51.020;5.304;2023-02-11T08:52:17;9.20;62.70
19214;DHT22;9741;51.020;5.304;2023-02-11T08:54:44;9.20;62.70
19214;DHT22;9741;51.020;5.304;2023-02-11T08:57:11;9.20;62.70
19214;DHT22;9741;51.020;5.304;2023-02-11T08:59:40;9.30;62.70
19214;DHT22;9741;51.020;5.304;2023-02-11T09:02:10;9.30;62.60
19214;DHT22;9741;51.020;5.304;2023-02-11T09:04:37;9.30;62.60
19214;DHT22;9741;51.020;5.304;2023-02-11T09:07:04;9.30;62.70
19214;DHT22;9741;51.020;5.304;2023-02-11T09:09:32;9.30;62.70
19214;DHT22;9741;51.020;5.304;2023-02-11T09:11:59;9.30;62.60
19214;DHT22;9741;51.020;5.304;2023-02-11T09:14:26;9.30;62.70
19214;DHT22;9741;51.020;5.304;2023-02-11T09:16:54;9.30;62.70
19214;DHT22;9741;51.020;5.304;2023-02-11T09:19:22;9.40;62.70
19214;DHT22;9741;51.020;5.304;2023-02-11T09:21:49;9.40;62.70
19214;DHT22;9741;51.020;5.304;2023-02-11T09:24:16;9.40;62.60
19214;DHT22;9741;51.020;5.304;2023-02-11T09:26:43;9.50;62.70
19214;DHT22;9741;51.020;5.304;2023-02-11T09:29:10;9.50;62.60
19214;DHT22;9741;51.020;5.304;2023-02-11T09:31:37;9.50;62.60
19214;DHT22;9741;51.020;5.304;2023-02-11T09:34:05;9.60;62.70
19214;DHT22;9741;51.020;5.304;2023-02-11T09:36:35;9.60;62.70
19214;DHT22;9741;51.020;5.304;2023-02-11T09:39:04;9.60;62.60
19214;DHT22;9741;51.020;5.304;2023-02-11T09:41:41;9.70;62.60
19214;DHT22;9741;51.020;5.304;2023-02-11T09:44:17;9.70;62.60
19214;DHT22;9741;51.020;5.304;2023-02-11T09:46:52;9.70;62.60
19214;DHT22;9741;51.020;5.304;2023-02-11T09:49:29;9.70;62.50
19214;DHT22;9741;51.020;5.304;2023-02-11T09:52:02;9.70;62.50
19214;DHT22;9741;51.020;5.304;2023-02-11T09:54:35;9.80;62.60
19214;DHT22;9741;51.020;5.304;2023-02-11T09:57:03;9.80;62.60
19214;DHT22;9741;51.020;5.304;2023-02-11T09:59:31;9.80;62.60
19214;DHT22;9741;51.020;5.304;2023-02-11T10:02:03;9.80;62.60
19214;DHT22;9741;51.020;5.304;2023-02-11T10:04:50;9.90;62.70
19214;DHT22;9741;51.020;5.304;2023-02-11T10:07:30;9.90;62.60
19214;DHT22;9741;51.020;5.304;2023-02-11T10:10:11;9.90;62.50
19214;DHT22;9741;51.020;5.304;2023-02-11T10:12:56;9.90;62.50
19214;DHT22;9741;51.020;5.304;2023-02-11T10:15:30;9.90;62.60
19214;DHT22;9741;51.020;5.304;2023-02-11T10:18:20;10.00;61.60
19214;DHT22;9741;51.020;5.304;2023-02-11T10:21:05;10.00;61.60
19214;DHT22;9741;51.020;5.304;2023-02-11T10:23:37;10.00;61.60
19214;DHT22;9741;51.020;5.304;2023-02-11T10:26:10;10.00;61.60
19214;DHT22;9741;51.020;5.304;2023-02-11T10:28:39;10.00;61.60
19214;DHT22;9741;51.020;5.304;2023-02-11T10:31:09;10.10;61.70
19214;DHT22;9741;51.020;5.304;2023-02-11T10:33:43;10.20;61.70
19214;DHT22;9741;51.020;5.304;2023-02-11T10:36:15;10.20;61.70
19214;DHT22;9741;51.020;5.304;2023-02-11T10:38:43;10.30;61.70
19214;DHT22;9741;51.020;5.304;2023-02-11T10:41:14;10.30;61.60
19214;DHT22;9741;51.020;5.304;2023-02-11T10:43:42;10.30;61.50
19214;DHT22;9741;51.020;5.304;2023-02-11T10:46:16;10.30;61.50
19214;DHT22;9741;51.020;5.304;2023-02-11T10:48:45;10.40;61.60
19214;DHT22;9741;51.020;5.304;2023-02-11T10:51:22;10.30;61.50
19214;DHT22;9741;51.020;5.304;2023-02-11T10:56:45;10.40;61.60
19214;DHT22;9741;51.020;5.304;2023-02-11T10:59:18;10.40;61.50
19214;DHT22;9741;51.020;5.304;2023-02-11T11:01:49;10.50;61.60
19214;DHT22;9741;51.020;5.304;2023-02-11T11:04:42;10.50;61.60
19214;DHT22;9741;51.020;5.304;2023-02-11T11:07:17;10.50;61.50
19214;DHT22;9741;51.020;5.304;2023-02-11T11:09:50;10.50;61.50
19214;DHT22;9741;51.020;5.304;2023-02-11T11:12:25;10.50;61.50
19214;DHT22;9741;51.020;5.304;2023-02-11T11:14:56;10.50;61.50
19214;DHT22;9741;51.020;5.304;2023-02-11T11:17:24;10.50;61.50
19214;DHT22;9741;51.020;5.304;2023-02-11T11:19:55;10.50;61.50
19214;DHT22;9741;51.020;5.304;2023-02-11T11:22:41;10.60;61.60
19214;DHT22;9741;51.020;5.304;2023-02-11T11:25:24;10.60;61.50
19214;DHT22;9741;51.020;5.304;2023-02-11T11:27:53;10.60;61.50
19214;DHT22;9741;51.020;5.304;2023-02-11T11:30:24;10.60;61.40
19214;DHT22;9741;51.020;5.304;2023-02-11T11:32:52;10.60;61.40
19214;DHT22;9741;51.020;5.304;2023-02-11T11:35:23;10.60;61.40
19214;DHT22;9741;51.020;5.304;2023-02-11T11:37:55;10.60;61.50
19214;DHT22;9741;51.020;5.304;2023-02-11T11:40:26;10.60;61.40
19214;DHT22;9741;51.020;5.304;2023-02-11T11:43:05;10.60;61.40
19214;DHT22;9741;51.020;5.304;2023-02-11T11:45:32;10.70;61.50
19214;DHT22;9741;51.020;5.304;2023-02-11T11:48:02;10.70;61.40
19214;DHT22;9741;51.020;5.304;2023-02-11T11:50:34;10.80;61.40
19214;DHT22;9741;51.020;5.304;2023-02-11T11:53:06;10.80;61.40
19214;DHT22;9741;51.020;5.304;2023-02-11T11:55:40;10.80;61.30
19214;DHT22;9741;51.020;5.304;2023-02-11T11:58:15;10.90;61.30
19214;DHT22;9741;51.020;5.304;2023-02-11T12:00:51;10.90;61.30
19214;DHT22;9741;51.020;5.304;2023-02-11T12:06:29;10.90;61.30
19214;DHT22;9741;51.020;5.304;2023-02-11T12:09:08;10.90;61.20
19214;DHT22;9741;51.020;5.304;2023-02-11T12:11:53;10.90;61.20
19214;DHT22;9741;51.020;5.304;2023-02-11T12:14:35;11.00;61.30
19214;DHT22;9741;51.020;5.304;2023-02-11T12:17:08;11.00;61.30
19214;DHT22;9741;51.020;5.304;2023-02-11T12:19:52;11.10;61.30
19214;DHT22;9741;51.020;5.304;2023-02-11T12:22:34;11.10;61.20
19214;DHT22;9741;51.020;5.304;2023-02-11T12:25:32;11.10;61.30
19214;DHT22;9741;51.020;5.304;2023-02-11T12:28:13;11.20;61.30
19214;DHT22;9741;51.020;5.304;2023-02-11T12:31:00;11.20;61.20
19214;DHT22;9741;51.020;5.304;2023-02-11T12:33:59;11.30;61.20
19214;DHT22;9741;51.020;5.304;2023-02-11T12:36:45;11.30;61.10
19214;DHT22;9741;51.020;5.304;2023-02-11T12:39:25;11.30;61.10
19214;DHT22;9741;51.020;5.304;2023-02-11T12:42:20;11.30;61.00
19214;DHT22;9741;51.020;5.304;2023-02-11T12:48:08;11.40;61.00
19214;DHT22;9741;51.020;5.304;2023-02-11T12:50:44;11.40;61.00
19214;DHT22;9741;51.020;5.304;2023-02-11T12:56:30;11.40;60.90
19214;DHT22;9741;51.020;5.304;2023-02-11T12:59:01;11.40;60.90
19214;DHT22;9741;51.020;5.304;2023-02-11T13:01:34;11.40;61.00
19214;DHT22;9741;51.020;5.304;2023-02-11T13:04:06;11.40;60.90
19214;DHT22;9741;51.020;5.304;2023-02-11T13:06:39;11.40;60.90
19214;DHT22;9741;51.020;5.304;2023-02-11T13:09:13;11.40;60.90
19214;DHT22;9741;51.020;5.304;2023-02-11T13:11:47;11.40;60.90
19214;DHT22;9741;51.020;5.304;2023-02-11T13:14:23;11.40;60.80
19214;DHT22;9741;51.020;5.304;2023-02-11T13:16:52;11.40;60.90
19214;DHT22;9741;51.020;5.304;2023-02-11T13:19:25;11.40;60.70
19214;DHT22;9741;51.020;5.304;2023-02-11T13:22:02;11.40;60.70
19214;DHT22;9741;51.020;5.304;2023-02-11T13:24:38;11.40;60.70
19214;DHT22;9741;51.020;5.304;2023-02-11T13:27:15;11.40;60.70
19214;DHT22;9741;51.020;5.304;2023-02-11T13:33:16;11.30;60.70
19214;DHT22;9741;51.020;5.304;2023-02-11T13:35:48;11.30;60.70
19214;DHT22;9741;51.020;5.304;2023-02-11T13:38:20;11.20;60.70
19214;DHT22;9741;51.020;5.304;2023-02-11T13:41:00;11.20;60.80
19214;DHT22;9741;51.020;5.304;2023-02-11T13:43:29;11.20;60.80
19214;DHT22;9741;51.020;5.304;2023-02-11T13:46:01;11.20;60.90
19214;DHT22;9741;51.020;5.304;2023-02-11T13:48:31;11.20;60.90
19214;DHT22;9741;51.020;5.304;2023-02-11T13:51:01;11.30;60.90
19214;DHT22;9741;51.020;5.304;2023-02-11T13:53:29;11.30;60.90
19214;DHT22;9741;51.020;5.304;2023-02-11T13:56:08;11.30;60.90
19214;DHT22;9741;51.020;5.304;2023-02-11T13:58:38;11.20;60.90
19214;DHT22;9741;51.020;5.304;2023-02-11T14:01:40;11.20;60.90
19214;DHT22;9741;51.020;5.304;2023-02-11T14:04:21;11.20;60.90
19214;DHT22;9741;51.020;5.304;2023-02-11T14:07:27;11.20;60.90
19214;DHT22;9741;51.020;5.304;2023-02-11T14:10:49;11.30;61.00
19214;DHT22;9741;51.020;5.304;2023-02-11T14:13:22;11.20;60.90
19214;DHT22;9741;51.020;5.304;2023-02-11T14:16:07;11.20;61.00
19214;DHT22;9741;51.020;5.304;2023-02-11T14:19:00;11.20;61.00
19214;DHT22;9741;51.020;5.304;2023-02-11T14:21:34;11.20;61.10
19214;DHT22;9741;51.020;5.304;2023-02-11T14:24:43;11.20;61.00
19214;DHT22;9741;51.020;5.304;2023-02-11T14:27:15;11.30;61.00
19214;DHT22;9741;51.020;5.304;2023-02-11T14:29:52;11.20;60.90
19214;DHT22;9741;51.020;5.304;2023-02-11T14:32:34;11.30;61.10
19214;DHT22;9741;51.020;5.304;2023-02-11T14:35:09;11.20;61.00
19214;DHT22;9741;51.020;5.304;2023-02-11T14:37:44;11.20;61.10
19214;DHT22;9741;51.020;5.304;2023-02-11T14:40:22;11.20;61.10
19214;DHT22;9741;51.020;5.304;2023-02-11T14:42:52;11.20;61.10
19214;DHT22;9741;51.020;5.304;2023-02-11T14:45:22;11.20;61.10
19214;DHT22;9741;51.020;5.304;2023-02-11T14:47:54;11.30;61.20
19214;DHT22;9741;51.020;5.304;2023-02-11T14:50:27;11.20;61.10
19214;DHT22;9741;51.020;5.304;2023-02-11T14:53:00;11.20;61.10
19214;DHT22;9741;51.020;5.304;2023-02-11T14:55:29;11.20;61.10
19214;DHT22;9741;51.020;5.304;2023-02-11T14:58:11;11.20;61.10
19214;DHT22;9741;51.020;5.304;2023-02-11T15:00:49;11.20;61.10
19214;DHT22;9741;51.020;5.304;2023-02-11T15:03:24;11.20;61.20
19214;DHT22;9741;51.020;5.304;2023-02-11T15:05:56;11.20;61.20
19214;DHT22;9741;51.020;5.304;2023-02-11T15:08:24;11.20;61.30
19214;DHT22;9741;51.020;5.304;2023-02-11T15:10:52;11.30;61.30
19214;DHT22;9741;51.020;5.304;2023-02-11T15:13:22;11.20;61.30
19214;DHT22;9741;51.020;5.304;2023-02-11T15:15:59;11.30;61.30
19214;DHT22;9741;51.020;5.304;2023-02-11T15:18:33;11.30;61.30
19214;DHT22;9741;51.020;5.304;2023-02-11T15:21:03;11.20;61.30
19214;DHT22;9741;51.020;5.304;2023-02-11T15:23:30;11.20;61.30
19214;DHT22;9741;51.020;5.304;2023-02-11T15:25:57;11.20;61.30
19214;DHT22;9741;51.020;5.304;2023-02-11T15:28:31;11.20;61.30
19214;DHT22;9741;51.020;5.304;2023-02-11T15:31:00;11.20;61.30
19214;DHT22;9741;51.020;5.304;2023-02-11T15:33:29;11.20;61.30
19214;DHT22;9741;51.020;5.304;2023-02-11T15:35:58;11.20;61.40
19214;DHT22;9741;51.020;5.304;2023-02-11T15:38:26;11.20;61.30
19214;DHT22;9741;51.020;5.304;2023-02-11T15:40:56;11.20;61.30
19214;DHT22;9741;51.020;5.304;2023-02-11T15:43:39;11.20;61.30
19214;DHT22;9741;51.020;5.304;2023-02-11T15:46:09;11.20;61.30
19214;DHT22;9741;51.020;5.304;2023-02-11T15:48:41;11.20;61.30
19214;DHT22;9741;51.020;5.304;2023-02-11T15:51:21;11.20;61.40
19214;DHT22;9741;51.020;5.304;2023-02-11T15:53:53;11.20;61.30
19214;DHT22;9741;51.020;5.304;2023-02-11T15:56:23;11.20;61.30
19214;DHT22;9741;51.020;5.304;2023-02-11T15:58:52;11.10;61.30
19214;DHT22;9741;51.020;5.304;2023-02-11T16:01:28;11.20;61.50
19214;DHT22;9741;51.020;5.304;2023-02-11T16:03:55;11.10;61.20
19214;DHT22;9741;51.020;5.304;2023-02-11T16:06:24;11.10;61.20
19214;DHT22;9741;51.020;5.304;2023-02-11T16:09:01;11.10;61.20
19214;DHT22;9741;51.020;5.304;2023-02-11T16:11:30;11.10;61.20
19214;DHT22;9741;51.020;5.304;2023-02-11T16:13:58;11.00;61.20
19214;DHT22;9741;51.020;5.304;2023-02-11T16:16:28;11.00;61.30
19214;DHT22;9741;51.020;5.304;2023-02-11T16:18:58;11.00;61.40
19214;DHT22;9741;51.020;5.304;2023-02-11T16:21:29;11.00;61.40
19214;DHT22;9741;51.020;5.304;2023-02-11T16:24:02;10.90;61.30
19214;DHT22;9741;51.020;5.304;2023-02-11T16:26:33;10.90;61.30
19214;DHT22;9741;51.020;5.304;2023-02-11T16:29:08;10.80;61.30
19214;DHT22;9741;51.020;5.304;2023-02-11T16:31:37;10.80;61.40
19214;DHT22;9741;51.020;5.304;2023-02-11T16:34:14;10.70;61.30
19214;DHT22;9741;51.020;5.304;2023-02-11T16:36:42;10.70;61.40
19214;DHT22;9741;51.020;5.304;2023-02-11T16:39:10;10.60;61.40
19214;DHT22;9741;51.020;5.304;2023-02-11T16:41:37;10.60;61.50